Aviation Digital Data Service (ADDS)

Output produced by METARs form (1324 UTC 22 April 2021)
found at http://www.aviationweather.gov/metar/data/
 
VTSP 221300Z 30006KT 260V330 9999 FEW020 28/24 Q1009 NOSIG
VTSP 221230Z 30005KT 270V330 9999 FEW020 28/24 Q1009 NOSIG
VTSP 221200Z 30009KT 9999 FEW020 28/25 Q1008 NOSIG
VTSP 221130Z 30006KT 270V330 9999 FEW020 29/24 Q1008 NOSIG
VTSP 221100Z 29006KT 270V330 9999 FEW020 29/25 Q1007 NOSIG
VTSP 221030Z 28008KT 9999 FEW020 29/25 Q1007 NOSIG
VTSP 221000Z 30011KT 260V340 9999 FEW020 29/24 Q1007 NOSIG
VTSP 220930Z 30010KT 270V350 9999 VCSH FEW018TCU 30/25 Q1007 NOSIG
VTSP 220900Z 30010KT 270V340 9999 FEW020 30/25 Q1008 NOSIG
VTSP 220830Z 31011KT 9999 FEW020 30/25 Q1008 NOSIG
VTSP 220800Z 30012KT 270V330 9999 FEW018TCU 30/25 Q1008 NOSIG
VTSP 220730Z 29012KT 260V320 9999 FEW018TCU 31/26 Q1008 NOSIG
VTSP 220700Z 31011KT 280V340 9999 FEW020 31/26 Q1008 NOSIG
VTSP 220630Z 30010KT 270V350 9999 FEW020 31/25 Q1009 NOSIG
VTSP 220600Z 31009KT 270V350 9999 FEW018TCU 31/25 Q1009 NOSIG
VTSP 220530Z 30010KT 9999 FEW018TCU 31/25 Q1010 NOSIG
VTSP 220500Z 30009KT 260V350 9999 FEW018TCU 31/25 Q1011 NOSIG
VTSP 220430Z 30009KT 270V350 9999 VCSH FEW018TCU SCT020 31/25 Q1011 NOSIG
VTSP 220400Z 31006KT 270V340 9999 -RA FEW018TCU SCT020 31/25 Q1011 NOSIG
VTSP 220330Z 31008KT 270V360 9999 -RA FEW018TCU SCT020 31/25 Q1011 NOSIG
VTSP 220300Z 31007KT 270V360 9999 VCSH FEW018TCU SCT020 31/25 Q1011 NOSIG
VTSP 220230Z 30007KT 9999 SCT020 30/25 Q1011 NOSIG
VTSP 220200Z 29006KT 9999 FEW020 29/25 Q1011 NOSIG
VTSP 220130Z 30004KT 270V360 9999 FEW020 29/25 Q1011 NOSIG
VTSP 220100Z VRB02KT 9999 FEW020 29/25 Q1010 NOSIG
VTSP 220030Z VRB02KT 9999 FEW020 27/25 Q1010 NOSIG
VTSP 220000Z 00000KT 9999 FEW020 26/25 Q1009 NOSIG
VTSP 212330Z 00000KT 9999 FEW020 25/24 Q1009 NOSIG
VTSP 212300Z VRB02KT 9999 FEW020 25/24 Q1008 NOSIG
VTSP 212230Z 00000KT 9999 FEW020 25/24 Q1008 NOSIG
VTSP 212200Z VRB02KT 9999 FEW020 25/24 Q1008 NOSIG
VTSP 212130Z VRB01KT 9999 FEW020 25/24 Q1008 NOSIG
VTSP 212100Z 11002KT 9999 FEW020 25/24 Q1008 NOSIG
VTSP 212030Z 00000KT 9999 FEW020 25/24 Q1008 NOSIG
VTSP 212000Z 00000KT 9999 FEW020 25/24 Q1008 NOSIG
VTSP 211930Z 00000KT 9999 FEW020 25/24 Q1008 NOSIG
VTSP 211900Z 00000KT 9999 FEW020 25/24 Q1008 NOSIG
VTSP 211830Z 00000KT 9999 FEW020 25/24 Q1009 NOSIG
VTSP 211800Z VRB01KT 9999 FEW020 25/24 Q1009 NOSIG
VTSP 211730Z VRB01KT 9999 FEW020 26/24 Q1010 NOSIG
VTSP 211700Z 00000KT 9999 FEW020 26/24 Q1010 NOSIG
VTSP 211630Z VRB02KT 9999 FEW020 26/24 Q1010 NOSIG
VTSP 211600Z VRB02KT 9999 FEW020 27/24 Q1011 NOSIG
VTSP 211530Z 00000KT 9999 FEW020 26/24 Q1011 NOSIG
VTSP 211500Z 34003KT 300V020 9999 FEW020 27/24 Q1011 NOSIG
VTSP 211430Z 32003KT 270V360 9999 FEW020 27/24 Q1010 NOSIG
VTSP 211400Z 31003KT 280V350 9999 FEW020 27/24 Q1010 NOSIG
VTSP 211330Z 29004KT 9999 FEW020 28/24 Q1010 NOSIG
TAF VTSP 221100Z 2212/2318 30008KT 9999 SCT020 
     BECMG 2214/2216 00000KT 
     BECMG 2300/2302 28008KT 
     TEMPO 2308/2312 28010G25KT 5000 TSRA FEW018CB SCT020 BKN100